sensor_id;sensor_type;location;lat;lon;timestamp;P1;durP1;ratioP1;P2;durP2;ratioP2
48789;SDS011;41718;51.980;5.734;2023-10-09T00:02:48;31.95;;;16.15;;
48789;SDS011;41718;51.980;5.734;2023-10-09T00:07:49;31.73;;;16.90;;
48789;SDS011;41718;51.980;5.734;2023-10-09T00:12:57;33.28;;;17.00;;
48789;SDS011;41718;51.980;5.734;2023-10-09T00:17:59;36.05;;;17.27;;
48789;SDS011;41718;51.980;5.734;2023-10-09T00:23:01;29.00;;;15.90;;
48789;SDS011;41718;51.980;5.734;2023-10-09T00:28:02;29.20;;;17.02;;
48789;SDS011;41718;51.980;5.734;2023-10-09T00:33:06;29.52;;;15.55;;
48789;SDS011;41718;51.980;5.734;2023-10-09T00:38:09;36.42;;;18.50;;
48789;SDS011;41718;51.980;5.734;2023-10-09T00:43:23;39.50;;;17.08;;
48789;SDS011;41718;51.980;5.734;2023-10-09T00:48:30;29.17;;;16.80;;
48789;SDS011;41718;51.980;5.734;2023-10-09T00:53:35;34.20;;;17.88;;
48789;SDS011;41718;51.980;5.734;2023-10-09T00:58:37;39.78;;;17.65;;
48789;SDS011;41718;51.980;5.734;2023-10-09T01:03:38;37.10;;;19.05;;
48789;SDS011;41718;51.980;5.734;2023-10-09T01:08:42;41.97;;;18.15;;
48789;SDS011;41718;51.980;5.734;2023-10-09T01:13:44;33.72;;;17.70;;
48789;SDS011;41718;51.980;5.734;2023-10-09T01:18:50;49.00;;;19.08;;
48789;SDS011;41718;51.980;5.734;2023-10-09T01:23:53;36.85;;;18.58;;
48789;SDS011;41718;51.980;5.734;2023-10-09T01:29:06;41.17;;;18.27;;
48789;SDS011;41718;51.980;5.734;2023-10-09T01:34:15;38.97;;;18.40;;
48789;SDS011;41718;51.980;5.734;2023-10-09T01:39:18;32.22;;;17.20;;
48789;SDS011;41718;51.980;5.734;2023-10-09T01:44:28;28.52;;;15.40;;
48789;SDS011;41718;51.980;5.734;2023-10-09T01:49:36;34.25;;;17.73;;
48789;SDS011;41718;51.980;5.734;2023-10-09T01:54:45;36.17;;;17.23;;
48789;SDS011;41718;51.980;5.734;2023-10-09T01:59:51;39.20;;;19.60;;
48789;SDS011;41718;51.980;5.734;2023-10-09T02:04:56;30.33;;;15.60;;
48789;SDS011;41718;51.980;5.734;2023-10-09T02:10:14;28.52;;;16.38;;
48789;SDS011;41718;51.980;5.734;2023-10-09T02:15:30;34.40;;;17.20;;
48789;SDS011;41718;51.980;5.734;2023-10-09T02:26:00;27.20;;;15.43;;
48789;SDS011;41718;51.980;5.734;2023-10-09T02:31:10;31.27;;;16.83;;
48789;SDS011;41718;51.980;5.734;2023-10-09T02:36:13;31.98;;;16.55;;
48789;SDS011;41718;51.980;5.734;2023-10-09T02:41:15;30.13;;;17.50;;
48789;SDS011;41718;51.980;5.734;2023-10-09T02:46:17;30.20;;;17.05;;
48789;SDS011;41718;51.980;5.734;2023-10-09T02:51:20;32.50;;;16.15;;
48789;SDS011;41718;51.980;5.734;2023-10-09T02:56:35;33.22;;;17.02;;
48789;SDS011;41718;51.980;5.734;2023-10-09T03:01:48;29.17;;;15.80;;
48789;SDS011;41718;51.980;5.734;2023-10-09T03:06:51;29.90;;;15.98;;
48789;SDS011;41718;51.980;5.734;2023-10-09T03:11:55;31.58;;;16.02;;
48789;SDS011;41718;51.980;5.734;2023-10-09T03:17:05;29.25;;;15.48;;
48789;SDS011;41718;51.980;5.734;2023-10-09T03:22:12;30.45;;;16.80;;
48789;SDS011;41718;51.980;5.734;2023-10-09T03:27:13;29.63;;;17.58;;
48789;SDS011;41718;51.980;5.734;2023-10-09T03:32:15;30.70;;;17.45;;
48789;SDS011;41718;51.980;5.734;2023-10-09T03:37:17;28.42;;;17.10;;
48789;SDS011;41718;51.980;5.734;2023-10-09T03:42:35;29.85;;;16.70;;
48789;SDS011;41718;51.980;5.734;2023-10-09T03:47:38;27.25;;;17.23;;
48789;SDS011;41718;51.980;5.734;2023-10-09T03:57:46;25.60;;;14.45;;
48789;SDS011;41718;51.980;5.734;2023-10-09T04:02:47;33.58;;;15.93;;
48789;SDS011;41718;51.980;5.734;2023-10-09T04:07:53;18.90;;;11.35;;
48789;SDS011;41718;51.980;5.734;2023-10-09T04:12:59;16.25;;;10.32;;
48789;SDS011;41718;51.980;5.734;2023-10-09T04:18:01;18.45;;;10.88;;
48789;SDS011;41718;51.980;5.734;2023-10-09T04:23:04;21.60;;;11.20;;
48789;SDS011;41718;51.980;5.734;2023-10-09T04:28:23;26.83;;;12.75;;
48789;SDS011;41718;51.980;5.734;2023-10-09T04:33:26;18.75;;;10.05;;
48789;SDS011;41718;51.980;5.734;2023-10-09T04:38:34;19.42;;;12.75;;
48789;SDS011;41718;51.980;5.734;2023-10-09T04:43:44;19.80;;;12.88;;
48789;SDS011;41718;51.980;5.734;2023-10-09T04:48:53;16.65;;;10.18;;
48789;SDS011;41718;51.980;5.734;2023-10-09T04:53:54;25.40;;;13.20;;
48789;SDS011;41718;51.980;5.734;2023-10-09T04:59:15;15.27;;;9.73;;
48789;SDS011;41718;51.980;5.734;2023-10-09T05:04:19;17.92;;;10.43;;
48789;SDS011;41718;51.980;5.734;2023-10-09T05:09:51;17.30;;;10.80;;
48789;SDS011;41718;51.980;5.734;2023-10-09T05:15:10;16.73;;;11.35;;
48789;SDS011;41718;51.980;5.734;2023-10-09T05:20:14;26.15;;;12.13;;
48789;SDS011;41718;51.980;5.734;2023-10-09T05:25:36;20.58;;;11.55;;
48789;SDS011;41718;51.980;5.734;2023-10-09T05:30:54;18.95;;;12.25;;
48789;SDS011;41718;51.980;5.734;2023-10-09T05:36:31;23.92;;;11.77;;
48789;SDS011;41718;51.980;5.734;2023-10-09T05:41:43;12.80;;;9.32;;
48789;SDS011;41718;51.980;5.734;2023-10-09T05:47:01;16.10;;;9.93;;
48789;SDS011;41718;51.980;5.734;2023-10-09T05:52:32;21.88;;;9.90;;
48789;SDS011;41718;51.980;5.734;2023-10-09T05:57:45;12.68;;;7.57;;
48789;SDS011;41718;51.980;5.734;2023-10-09T06:03:09;18.10;;;9.68;;
48789;SDS011;41718;51.980;5.734;2023-10-09T06:08:21;14.43;;;10.00;;
48789;SDS011;41718;51.980;5.734;2023-10-09T06:13:42;20.08;;;11.57;;
48789;SDS011;41718;51.980;5.734;2023-10-09T06:19:06;18.55;;;10.73;;
48789;SDS011;41718;51.980;5.734;2023-10-09T06:24:30;14.60;;;9.85;;
48789;SDS011;41718;51.980;5.734;2023-10-09T06:29:44;24.52;;;10.85;;
48789;SDS011;41718;51.980;5.734;2023-10-09T06:34:50;16.25;;;10.15;;
48789;SDS011;41718;51.980;5.734;2023-10-09T06:39:54;17.25;;;10.80;;
48789;SDS011;41718;51.980;5.734;2023-10-09T06:45:00;21.90;;;11.98;;
48789;SDS011;41718;51.980;5.734;2023-10-09T06:50:26;22.58;;;11.60;;
48789;SDS011;41718;51.980;5.734;2023-10-09T06:55:28;22.45;;;13.27;;
48789;SDS011;41718;51.980;5.734;2023-10-09T07:00:49;23.90;;;13.43;;
48789;SDS011;41718;51.980;5.734;2023-10-09T07:06:10;21.10;;;11.50;;
48789;SDS011;41718;51.980;5.734;2023-10-09T07:11:35;25.02;;;13.45;;
48789;SDS011;41718;51.980;5.734;2023-10-09T07:16:40;23.98;;;14.45;;
48789;SDS011;41718;51.980;5.734;2023-10-09T07:21:58;30.02;;;13.80;;
48789;SDS011;41718;51.980;5.734;2023-10-09T07:27:04;19.75;;;12.70;;
48789;SDS011;41718;51.980;5.734;2023-10-09T07:37:26;22.13;;;11.18;;
48789;SDS011;41718;51.980;5.734;2023-10-09T07:42:39;18.55;;;10.52;;
48789;SDS011;41718;51.980;5.734;2023-10-09T07:47:40;22.42;;;13.05;;
48789;SDS011;41718;51.980;5.734;2023-10-09T07:53:02;30.35;;;16.83;;
48789;SDS011;41718;51.980;5.734;2023-10-09T07:58:16;25.25;;;15.10;;
48789;SDS011;41718;51.980;5.734;2023-10-09T08:03:18;24.67;;;16.20;;
48789;SDS011;41718;51.980;5.734;2023-10-09T08:08:26;30.88;;;16.10;;
48789;SDS011;41718;51.980;5.734;2023-10-09T08:13:39;25.27;;;15.48;;
48789;SDS011;41718;51.980;5.734;2023-10-09T08:19:13;29.60;;;14.15;;
48789;SDS011;41718;51.980;5.734;2023-10-09T08:24:33;24.23;;;14.68;;
48789;SDS011;41718;51.980;5.734;2023-10-09T08:29:42;28.15;;;14.23;;
48789;SDS011;41718;51.980;5.734;2023-10-09T08:34:48;25.98;;;16.20;;
48789;SDS011;41718;51.980;5.734;2023-10-09T08:39:57;27.55;;;14.10;;
48789;SDS011;41718;51.980;5.734;2023-10-09T08:45:00;23.60;;;13.68;;
48789;SDS011;41718;51.980;5.734;2023-10-09T08:50:06;23.48;;;13.18;;
48789;SDS011;41718;51.980;5.734;2023-10-09T08:55:14;26.75;;;13.55;;
48789;SDS011;41718;51.980;5.734;2023-10-09T09:00:19;16.05;;;8.52;;
48789;SDS011;41718;51.980;5.734;2023-10-09T09:10:30;12.35;;;7.72;;
48789;SDS011;41718;51.980;5.734;2023-10-09T09:15:40;14.10;;;8.35;;
48789;SDS011;41718;51.980;5.734;2023-10-09T09:20:42;13.98;;;7.75;;
48789;SDS011;41718;51.980;5.734;2023-10-09T09:25:47;15.27;;;7.77;;
48789;SDS011;41718;51.980;5.734;2023-10-09T09:30:51;17.38;;;9.07;;
48789;SDS011;41718;51.980;5.734;2023-10-09T09:35:59;10.32;;;7.65;;
48789;SDS011;41718;51.980;5.734;2023-10-09T09:41:04;12.43;;;8.07;;
48789;SDS011;41718;51.980;5.734;2023-10-09T09:46:08;17.15;;;9.27;;
48789;SDS011;41718;51.980;5.734;2023-10-09T09:51:13;14.13;;;8.23;;
48789;SDS011;41718;51.980;5.734;2023-10-09T09:56:16;14.73;;;7.15;;
48789;SDS011;41718;51.980;5.734;2023-10-09T10:01:26;10.23;;;6.82;;
48789;SDS011;41718;51.980;5.734;2023-10-09T10:06:36;12.30;;;6.35;;
48789;SDS011;41718;51.980;5.734;2023-10-09T10:11:44;13.53;;;6.20;;
48789;SDS011;41718;51.980;5.734;2023-10-09T10:22:04;7.65;;;4.82;;
48789;SDS011;41718;51.980;5.734;2023-10-09T10:27:29;8.25;;;5.18;;
48789;SDS011;41718;51.980;5.734;2023-10-09T10:33:03;13.25;;;5.82;;
48789;SDS011;41718;51.980;5.734;2023-10-09T10:38:32;14.23;;;5.97;;
48789;SDS011;41718;51.980;5.734;2023-10-09T10:43:35;9.07;;;4.63;;
48789;SDS011;41718;51.980;5.734;2023-10-09T10:48:50;10.65;;;5.03;;
48789;SDS011;41718;51.980;5.734;2023-10-09T10:54:01;8.32;;;5.97;;
48789;SDS011;41718;51.980;5.734;2023-10-09T10:59:23;14.07;;;5.80;;
48789;SDS011;41718;51.980;5.734;2023-10-09T11:04:31;14.70;;;5.32;;
48789;SDS011;41718;51.980;5.734;2023-10-09T11:09:52;10.45;;;4.72;;
48789;SDS011;41718;51.980;5.734;2023-10-09T11:15:10;8.40;;;3.95;;
48789;SDS011;41718;51.980;5.734;2023-10-09T11:20:24;8.75;;;4.90;;
48789;SDS011;41718;51.980;5.734;2023-10-09T11:25:27;8.88;;;4.20;;
48789;SDS011;41718;51.980;5.734;2023-10-09T11:30:31;6.07;;;3.45;;
48789;SDS011;41718;51.980;5.734;2023-10-09T11:35:34;8.40;;;5.28;;
48789;SDS011;41718;51.980;5.734;2023-10-09T11:40:36;10.93;;;5.20;;
48789;SDS011;41718;51.980;5.734;2023-10-09T11:46:10;7.70;;;4.88;;
48789;SDS011;41718;51.980;5.734;2023-10-09T11:51:34;9.18;;;4.65;;
48789;SDS011;41718;51.980;5.734;2023-10-09T11:56:44;7.07;;;4.55;;
48789;SDS011;41718;51.980;5.734;2023-10-09T12:01:46;11.45;;;4.55;;
48789;SDS011;41718;51.980;5.734;2023-10-09T12:06:54;9.80;;;4.40;;
48789;SDS011;41718;51.980;5.734;2023-10-09T12:12:08;6.65;;;3.92;;
48789;SDS011;41718;51.980;5.734;2023-10-09T12:17:12;6.03;;;3.58;;
48789;SDS011;41718;51.980;5.734;2023-10-09T12:22:14;9.30;;;4.60;;
48789;SDS011;41718;51.980;5.734;2023-10-09T12:27:18;7.65;;;4.03;;
48789;SDS011;41718;51.980;5.734;2023-10-09T12:32:21;8.68;;;4.88;;
48789;SDS011;41718;51.980;5.734;2023-10-09T12:37:23;6.35;;;4.13;;
48789;SDS011;41718;51.980;5.734;2023-10-09T12:42:24;8.32;;;3.97;;
48789;SDS011;41718;51.980;5.734;2023-10-09T12:47:29;8.40;;;4.70;;
48789;SDS011;41718;51.980;5.734;2023-10-09T12:52:31;9.93;;;4.05;;
48789;SDS011;41718;51.980;5.734;2023-10-09T12:57:33;8.90;;;4.72;;
48789;SDS011;41718;51.980;5.734;2023-10-09T13:02:35;6.55;;;4.07;;
48789;SDS011;41718;51.980;5.734;2023-10-09T13:07:37;4.53;;;3.47;;
48789;SDS011;41718;51.980;5.734;2023-10-09T13:12:38;7.18;;;3.97;;
48789;SDS011;41718;51.980;5.734;2023-10-09T13:17:42;6.22;;;3.35;;
48789;SDS011;41718;51.980;5.734;2023-10-09T13:22:44;9.43;;;4.63;;
48789;SDS011;41718;51.980;5.734;2023-10-09T13:27:50;12.55;;;4.18;;
48789;SDS011;41718;51.980;5.734;2023-10-09T13:32:52;7.90;;;3.63;;
48789;SDS011;41718;51.980;5.734;2023-10-09T13:37:53;9.80;;;4.00;;
48789;SDS011;41718;51.980;5.734;2023-10-09T13:42:55;8.30;;;4.00;;
48789;SDS011;41718;51.980;5.734;2023-10-09T13:47:59;8.40;;;3.83;;
48789;SDS011;41718;51.980;5.734;2023-10-09T13:53:04;11.40;;;5.03;;
48789;SDS011;41718;51.980;5.734;2023-10-09T13:58:12;6.10;;;3.95;;
48789;SDS011;41718;51.980;5.734;2023-10-09T14:03:15;13.05;;;5.35;;
48789;SDS011;41718;51.980;5.734;2023-10-09T14:08:21;8.00;;;3.95;;
48789;SDS011;41718;51.980;5.734;2023-10-09T14:13:27;9.77;;;5.28;;
48789;SDS011;41718;51.980;5.734;2023-10-09T14:18:30;7.35;;;4.03;;
48789;SDS011;41718;51.980;5.734;2023-10-09T14:23:32;8.20;;;4.63;;
48789;SDS011;41718;51.980;5.734;2023-10-09T14:28:36;5.15;;;3.38;;
48789;SDS011;41718;51.980;5.734;2023-10-09T14:33:38;7.47;;;4.00;;
48789;SDS011;41718;51.980;5.734;2023-10-09T14:38:41;4.85;;;3.47;;
48789;SDS011;41718;51.980;5.734;2023-10-09T14:43:43;5.90;;;3.80;;
48789;SDS011;41718;51.980;5.734;2023-10-09T14:48:45;6.43;;;3.72;;
48789;SDS011;41718;51.980;5.734;2023-10-09T14:53:47;6.50;;;3.72;;
48789;SDS011;41718;51.980;5.734;2023-10-09T14:58:50;8.23;;;4.18;;
48789;SDS011;41718;51.980;5.734;2023-10-09T15:03:52;6.00;;;3.53;;
48789;SDS011;41718;51.980;5.734;2023-10-09T15:08:57;12.38;;;4.15;;
48789;SDS011;41718;51.980;5.734;2023-10-09T15:13:59;7.70;;;4.20;;
48789;SDS011;41718;51.980;5.734;2023-10-09T15:19:01;9.82;;;4.00;;
48789;SDS011;41718;51.980;5.734;2023-10-09T15:24:04;13.43;;;5.00;;
48789;SDS011;41718;51.980;5.734;2023-10-09T15:29:06;9.52;;;3.95;;
48789;SDS011;41718;51.980;5.734;2023-10-09T15:34:08;7.82;;;4.18;;
48789;SDS011;41718;51.980;5.734;2023-10-09T15:39:10;10.10;;;4.50;;
48789;SDS011;41718;51.980;5.734;2023-10-09T15:44:13;9.18;;;3.90;;
48789;SDS011;41718;51.980;5.734;2023-10-09T15:54:19;7.97;;;3.75;;
48789;SDS011;41718;51.980;5.734;2023-10-09T15:59:22;6.07;;;4.13;;
48789;SDS011;41718;51.980;5.734;2023-10-09T16:04:25;8.77;;;4.03;;
48789;SDS011;41718;51.980;5.734;2023-10-09T16:09:27;6.65;;;4.03;;
48789;SDS011;41718;51.980;5.734;2023-10-09T16:14:31;8.30;;;4.13;;
48789;SDS011;41718;51.980;5.734;2023-10-09T16:19:32;9.65;;;4.72;;
48789;SDS011;41718;51.980;5.734;2023-10-09T16:24:38;12.02;;;3.78;;
48789;SDS011;41718;51.980;5.734;2023-10-09T16:29:40;9.90;;;4.85;;
48789;SDS011;41718;51.980;5.734;2023-10-09T16:34:48;9.43;;;3.92;;
48789;SDS011;41718;51.980;5.734;2023-10-09T16:39:54;11.10;;;4.63;;
48789;SDS011;41718;51.980;5.734;2023-10-09T16:44:56;10.35;;;8.10;;
48789;SDS011;41718;51.980;5.734;2023-10-09T16:49:58;13.18;;;5.28;;
48789;SDS011;41718;51.980;5.734;2023-10-09T16:55:02;9.95;;;4.70;;
48789;SDS011;41718;51.980;5.734;2023-10-09T17:00:03;7.70;;;4.47;;
48789;SDS011;41718;51.980;5.734;2023-10-09T17:05:13;10.13;;;5.28;;
48789;SDS011;41718;51.980;5.734;2023-10-09T17:10:15;9.55;;;5.65;;
48789;SDS011;41718;51.980;5.734;2023-10-09T17:15:16;9.65;;;5.65;;
48789;SDS011;41718;51.980;5.734;2023-10-09T17:20:18;9.50;;;6.28;;
48789;SDS011;41718;51.980;5.734;2023-10-09T17:25:22;13.30;;;5.68;;
48789;SDS011;41718;51.980;5.734;2023-10-09T17:30:24;8.57;;;5.63;;
48789;SDS011;41718;51.980;5.734;2023-10-09T17:35:28;20.65;;;7.75;;
48789;SDS011;41718;51.980;5.734;2023-10-09T17:40:32;11.70;;;5.03;;
48789;SDS011;41718;51.980;5.734;2023-10-09T17:45:36;12.43;;;5.00;;
48789;SDS011;41718;51.980;5.734;2023-10-09T17:50:43;8.88;;;5.72;;
48789;SDS011;41718;51.980;5.734;2023-10-09T17:55:45;13.65;;;7.30;;
48789;SDS011;41718;51.980;5.734;2023-10-09T18:00:48;13.88;;;5.75;;
48789;SDS011;41718;51.980;5.734;2023-10-09T18:05:54;8.13;;;5.38;;
48789;SDS011;41718;51.980;5.734;2023-10-09T18:10:56;12.10;;;5.47;;
48789;SDS011;41718;51.980;5.734;2023-10-09T18:21:18;10.25;;;4.75;;
48789;SDS011;41718;51.980;5.734;2023-10-09T18:26:21;12.38;;;5.97;;
48789;SDS011;41718;51.980;5.734;2023-10-09T18:31:25;11.55;;;5.60;;
48789;SDS011;41718;51.980;5.734;2023-10-09T18:36:28;10.95;;;6.78;;
48789;SDS011;41718;51.980;5.734;2023-10-09T18:41:31;10.10;;;6.03;;
48789;SDS011;41718;51.980;5.734;2023-10-09T18:46:33;13.23;;;7.60;;
48789;SDS011;41718;51.980;5.734;2023-10-09T18:51:39;10.77;;;5.22;;
48789;SDS011;41718;51.980;5.734;2023-10-09T18:56:42;13.05;;;5.57;;
48789;SDS011;41718;51.980;5.734;2023-10-09T19:01:50;11.65;;;5.55;;
48789;SDS011;41718;51.980;5.734;2023-10-09T19:06:54;8.15;;;6.05;;
48789;SDS011;41718;51.980;5.734;2023-10-09T19:11:58;11.50;;;4.95;;
48789;SDS011;41718;51.980;5.734;2023-10-09T19:17:00;9.13;;;4.65;;
48789;SDS011;41718;51.980;5.734;2023-10-09T19:22:14;11.27;;;5.80;;
48789;SDS011;41718;51.980;5.734;2023-10-09T19:27:19;5.82;;;4.80;;
48789;SDS011;41718;51.980;5.734;2023-10-09T19:32:37;11.70;;;5.15;;
48789;SDS011;41718;51.980;5.734;2023-10-09T19:37:49;10.35;;;5.90;;
48789;SDS011;41718;51.980;5.734;2023-10-09T19:42:57;11.82;;;5.63;;
48789;SDS011;41718;51.980;5.734;2023-10-09T19:47:59;10.65;;;5.53;;
48789;SDS011;41718;51.980;5.734;2023-10-09T19:53:03;15.13;;;7.30;;
48789;SDS011;41718;51.980;5.734;2023-10-09T19:58:05;10.50;;;6.40;;
48789;SDS011;41718;51.980;5.734;2023-10-09T20:03:12;13.73;;;6.43;;
48789;SDS011;41718;51.980;5.734;2023-10-09T20:08:16;9.70;;;6.43;;
48789;SDS011;41718;51.980;5.734;2023-10-09T20:13:18;12.88;;;8.65;;
48789;SDS011;41718;51.980;5.734;2023-10-09T20:18:22;11.50;;;7.13;;
48789;SDS011;41718;51.980;5.734;2023-10-09T20:23:24;13.00;;;7.13;;
48789;SDS011;41718;51.980;5.734;2023-10-09T20:28:27;15.38;;;8.82;;
48789;SDS011;41718;51.980;5.734;2023-10-09T20:33:29;10.93;;;6.70;;
48789;SDS011;41718;51.980;5.734;2023-10-09T20:38:39;12.25;;;8.43;;
48789;SDS011;41718;51.980;5.734;2023-10-09T20:43:41;12.95;;;8.02;;
48789;SDS011;41718;51.980;5.734;2023-10-09T20:48:44;16.55;;;9.35;;
48789;SDS011;41718;51.980;5.734;2023-10-09T20:53:48;13.82;;;8.70;;
48789;SDS011;41718;51.980;5.734;2023-10-09T20:58:51;17.55;;;10.52;;
48789;SDS011;41718;51.980;5.734;2023-10-09T21:03:56;14.15;;;8.88;;
48789;SDS011;41718;51.980;5.734;2023-10-09T21:09:02;14.88;;;8.95;;
48789;SDS011;41718;51.980;5.734;2023-10-09T21:14:11;18.73;;;8.23;;
48789;SDS011;41718;51.980;5.734;2023-10-09T21:19:17;22.98;;;10.00;;
48789;SDS011;41718;51.980;5.734;2023-10-09T21:24:18;13.05;;;8.27;;
48789;SDS011;41718;51.980;5.734;2023-10-09T21:29:25;20.48;;;9.65;;
48789;SDS011;41718;51.980;5.734;2023-10-09T21:34:27;15.07;;;9.98;;
48789;SDS011;41718;51.980;5.734;2023-10-09T21:39:29;14.05;;;9.05;;
48789;SDS011;41718;51.980;5.734;2023-10-09T21:44:34;18.88;;;10.02;;
48789;SDS011;41718;51.980;5.734;2023-10-09T21:49:36;12.93;;;8.77;;
48789;SDS011;41718;51.980;5.734;2023-10-09T21:54:38;18.15;;;10.90;;
48789;SDS011;41718;51.980;5.734;2023-10-09T21:59:40;17.17;;;10.18;;
48789;SDS011;41718;51.980;5.734;2023-10-09T22:04:44;15.77;;;9.65;;
48789;SDS011;41718;51.980;5.734;2023-10-09T22:09:49;17.52;;;9.35;;
48789;SDS011;41718;51.980;5.734;2023-10-09T22:14:53;16.63;;;9.95;;
48789;SDS011;41718;51.980;5.734;2023-10-09T22:20:01;12.85;;;9.02;;
48789;SDS011;41718;51.980;5.734;2023-10-09T22:25:05;13.15;;;9.13;;
48789;SDS011;41718;51.980;5.734;2023-10-09T22:30:09;15.30;;;8.93;;
48789;SDS011;41718;51.980;5.734;2023-10-09T22:35:14;16.80;;;9.82;;
48789;SDS011;41718;51.980;5.734;2023-10-09T22:45:27;15.50;;;9.90;;
48789;SDS011;41718;51.980;5.734;2023-10-09T22:50:35;18.35;;;11.60;;
48789;SDS011;41718;51.980;5.734;2023-10-09T22:55:38;16.38;;;9.75;;
48789;SDS011;41718;51.980;5.734;2023-10-09T23:00:45;19.48;;;10.18;;
48789;SDS011;41718;51.980;5.734;2023-10-09T23:05:53;20.70;;;10.82;;
48789;SDS011;41718;51.980;5.734;2023-10-09T23:10:58;15.50;;;10.20;;
48789;SDS011;41718;51.980;5.734;2023-10-09T23:16:14;22.02;;;11.95;;
48789;SDS011;41718;51.980;5.734;2023-10-09T23:21:16;19.45;;;11.95;;
48789;SDS011;41718;51.980;5.734;2023-10-09T23:26:30;16.20;;;11.27;;
48789;SDS011;41718;51.980;5.734;2023-10-09T23:31:35;15.20;;;9.88;;
48789;SDS011;41718;51.980;5.734;2023-10-09T23:36:47;19.92;;;10.48;;
48789;SDS011;41718;51.980;5.734;2023-10-09T23:41:49;21.42;;;11.68;;
48789;SDS011;41718;51.980;5.734;2023-10-09T23:47:03;20.75;;;12.05;;
48789;SDS011;41718;51.980;5.734;2023-10-09T23:52:10;20.25;;;13.13;;
48789;SDS011;41718;51.980;5.734;2023-10-09T23:57:14;25.23;;;12.23;;
